This is the latest recevied weather packets stored in our database for station/object OM8AGG-10. If no packets are shown the sender has not sent any weather packets the latest 10 day(s).
| Time | Temp. | Humidity | Pressure | Rain* | Wind** | Luminosity | Snow |
|---|---|---|---|---|---|---|---|
| 1777845885 | 3.89° C | 90% | 1021.1 hPa | - | - | - | - |
| 1777844085 | 4.44° C | 85% | 1021 hPa | - | - | - | - |
| 1777843185 | 5° C | 84% | 1020.8 hPa | - | - | - | - |
| 1777842285 | 5° C | 83% | 1020.9 hPa | - | - | - | - |
| 1777840485 | 7.22° C | 72% | 1020.8 hPa | - | - | - | - |
| 1777839585 | 7.78° C | 68% | 1020.8 hPa | - | - | - | - |
| 1777838685 | 7.78° C | 67% | 1020.7 hPa | - | - | - | - |
| 1777836885 | 8.33° C | 64% | 1020.8 hPa | - | - | - | - |
| 1777835985 | 8.89° C | 63% | 1020.7 hPa | - | - | - | - |
| 1777835085 | 9.44° C | 63% | 1020.6 hPa | - | - | - | - |
| 1777831484 | 12.78° C | 49% | 1020.2 hPa | - | - | - | - |
| 1777829684 | 14.44° C | 46% | 1020.1 hPa | - | - | - | - |
| 1777828784 | 16.11° C | 41% | 1019.9 hPa | - | - | - | - |
| 1777827884 | 17.78° C | 37% | 1019.9 hPa | - | - | - | - |
| 1777822483 | 24.44° C | 21% | 1020.3 hPa | - | - | - | - |
| 1777821583 | 25° C | 22% | 1020.5 hPa | - | - | - | - |
| 1777820683 | 25° C | 22% | 1020.6 hPa | - | - | - | - |
| 1777818883 | 26.11° C | 20% | 1020.9 hPa | - | - | - | - |
| 1777817983 | 25° C | 20% | 1021.1 hPa | - | - | - | - |
| 1777817083 | 24.44° C | 22% | 1021.3 hPa | - | - | - | - |
| 1777815283 | 23.33° C | 23% | 1021.7 hPa | - | - | - | - |
| 1777813482 | 22.78° C | 25% | 1022 hPa | - | - | - | - |
| 1777810782 | 22.78° C | 23% | 1022.3 hPa | - | - | - | - |
| 1777808082 | 21.67° C | 26% | 1022.9 hPa | - | - | - | - |
| 1777807182 | 22.22° C | 27% | 1023 hPa | - | - | - | - |
* Rain since midnight (hover to see other rain measurements)
** Current wind speed in m/s (hover to see current wind gust speed)